sensor_id;sensor_type;location;lat;lon;timestamp;P1;durP1;ratioP1;P2;durP2;ratioP2
11313;SDS011;5712;48.858;9.206;2023-05-10T00:01:05;0.80;;;0.80;;
11313;SDS011;5712;48.858;9.206;2023-05-10T00:03:32;0.80;;;0.80;;
11313;SDS011;5712;48.858;9.206;2023-05-10T00:05:59;2.30;;;0.70;;
11313;SDS011;5712;48.858;9.206;2023-05-10T00:08:25;1.33;;;0.70;;
11313;SDS011;5712;48.858;9.206;2023-05-10T00:10:52;0.93;;;0.60;;
11313;SDS011;5712;48.858;9.206;2023-05-10T00:13:20;0.50;;;0.40;;
11313;SDS011;5712;48.858;9.206;2023-05-10T00:15:47;0.73;;;0.73;;
11313;SDS011;5712;48.858;9.206;2023-05-10T00:18:13;0.60;;;0.50;;
11313;SDS011;5712;48.858;9.206;2023-05-10T00:20:40;0.60;;;0.60;;
11313;SDS011;5712;48.858;9.206;2023-05-10T00:23:06;0.30;;;0.30;;
11313;SDS011;5712;48.858;9.206;2023-05-10T00:25:33;0.30;;;0.30;;
11313;SDS011;5712;48.858;9.206;2023-05-10T00:27:59;1.17;;;0.30;;
11313;SDS011;5712;48.858;9.206;2023-05-10T00:30:28;1.87;;;0.50;;
11313;SDS011;5712;48.858;9.206;2023-05-10T00:32:54;0.40;;;0.40;;
11313;SDS011;5712;48.858;9.206;2023-05-10T00:35:21;2.30;;;0.53;;
11313;SDS011;5712;48.858;9.206;2023-05-10T00:37:47;3.83;;;0.50;;
11313;SDS011;5712;48.858;9.206;2023-05-10T00:40:14;1.07;;;0.33;;
11313;SDS011;5712;48.858;9.206;2023-05-10T00:42:41;1.13;;;0.40;;
11313;SDS011;5712;48.858;9.206;2023-05-10T00:45:08;0.30;;;0.30;;
11313;SDS011;5712;48.858;9.206;2023-05-10T00:47:36;1.23;;;0.37;;
11313;SDS011;5712;48.858;9.206;2023-05-10T00:50:02;0.33;;;0.30;;
11313;SDS011;5712;48.858;9.206;2023-05-10T00:52:34;0.60;;;0.50;;
11313;SDS011;5712;48.858;9.206;2023-05-10T00:55:00;0.50;;;0.50;;
11313;SDS011;5712;48.858;9.206;2023-05-10T00:57:28;0.50;;;0.50;;
11313;SDS011;5712;48.858;9.206;2023-05-10T00:59:55;0.70;;;0.50;;
11313;SDS011;5712;48.858;9.206;2023-05-10T01:02:23;1.17;;;0.40;;
11313;SDS011;5712;48.858;9.206;2023-05-10T01:04:51;0.77;;;0.50;;
11313;SDS011;5712;48.858;9.206;2023-05-10T01:07:19;1.47;;;0.60;;
11313;SDS011;5712;48.858;9.206;2023-05-10T01:09:45;0.57;;;0.50;;
11313;SDS011;5712;48.858;9.206;2023-05-10T01:12:12;0.83;;;0.43;;
11313;SDS011;5712;48.858;9.206;2023-05-10T01:14:39;2.53;;;0.67;;
11313;SDS011;5712;48.858;9.206;2023-05-10T01:17:06;0.60;;;0.60;;
11313;SDS011;5712;48.858;9.206;2023-05-10T01:19:34;0.60;;;0.60;;
11313;SDS011;5712;48.858;9.206;2023-05-10T01:22:05;1.00;;;0.67;;
11313;SDS011;5712;48.858;9.206;2023-05-10T01:24:59;1.00;;;0.73;;
11313;SDS011;5712;48.858;9.206;2023-05-10T01:27:47;0.80;;;0.80;;
11313;SDS011;5712;48.858;9.206;2023-05-10T01:30:47;0.77;;;0.77;;
11313;SDS011;5712;48.858;9.206;2023-05-10T01:33:31;1.10;;;1.00;;
11313;SDS011;5712;48.858;9.206;2023-05-10T01:36:03;1.00;;;1.00;;
11313;SDS011;5712;48.858;9.206;2023-05-10T01:38:33;1.30;;;1.20;;
11313;SDS011;5712;48.858;9.206;2023-05-10T01:41:09;1.43;;;1.30;;
11313;SDS011;5712;48.858;9.206;2023-05-10T01:43:43;1.00;;;1.00;;
11313;SDS011;5712;48.858;9.206;2023-05-10T01:46:20;1.30;;;1.20;;
11313;SDS011;5712;48.858;9.206;2023-05-10T01:48:55;1.93;;;1.10;;
11313;SDS011;5712;48.858;9.206;2023-05-10T01:51:25;1.97;;;1.20;;
11313;SDS011;5712;48.858;9.206;2023-05-10T01:53:57;1.30;;;1.20;;
11313;SDS011;5712;48.858;9.206;2023-05-10T01:56:26;2.00;;;1.20;;
11313;SDS011;5712;48.858;9.206;2023-05-10T01:58:55;1.90;;;1.20;;
11313;SDS011;5712;48.858;9.206;2023-05-10T02:01:23;2.37;;;1.50;;
11313;SDS011;5712;48.858;9.206;2023-05-10T02:03:52;1.20;;;1.10;;
11313;SDS011;5712;48.858;9.206;2023-05-10T02:06:21;1.30;;;1.17;;
11313;SDS011;5712;48.858;9.206;2023-05-10T02:08:50;1.53;;;1.43;;
11313;SDS011;5712;48.858;9.206;2023-05-10T02:11:18;1.67;;;1.10;;
11313;SDS011;5712;48.858;9.206;2023-05-10T02:13:47;1.27;;;1.10;;
11313;SDS011;5712;48.858;9.206;2023-05-10T02:16:15;2.03;;;1.30;;
11313;SDS011;5712;48.858;9.206;2023-05-10T02:18:43;1.40;;;1.30;;
11313;SDS011;5712;48.858;9.206;2023-05-10T02:21:11;2.00;;;1.30;;
11313;SDS011;5712;48.858;9.206;2023-05-10T02:23:41;1.50;;;1.40;;
11313;SDS011;5712;48.858;9.206;2023-05-10T02:26:09;1.37;;;1.27;;
11313;SDS011;5712;48.858;9.206;2023-05-10T02:28:38;1.30;;;1.20;;
11313;SDS011;5712;48.858;9.206;2023-05-10T02:31:06;1.40;;;1.30;;
11313;SDS011;5712;48.858;9.206;2023-05-10T02:33:34;2.03;;;1.13;;
11313;SDS011;5712;48.858;9.206;2023-05-10T02:36:02;1.53;;;1.43;;
11313;SDS011;5712;48.858;9.206;2023-05-10T02:38:31;1.40;;;1.20;;
11313;SDS011;5712;48.858;9.206;2023-05-10T02:40:59;1.40;;;1.30;;
11313;SDS011;5712;48.858;9.206;2023-05-10T02:43:27;2.10;;;1.30;;
11313;SDS011;5712;48.858;9.206;2023-05-10T02:45:56;1.43;;;1.30;;
11313;SDS011;5712;48.858;9.206;2023-05-10T02:48:23;1.40;;;1.30;;
11313;SDS011;5712;48.858;9.206;2023-05-10T02:50:50;1.40;;;1.30;;
11313;SDS011;5712;48.858;9.206;2023-05-10T02:53:18;1.50;;;1.30;;
11313;SDS011;5712;48.858;9.206;2023-05-10T02:55:50;1.60;;;1.40;;
11313;SDS011;5712;48.858;9.206;2023-05-10T02:58:22;2.27;;;1.50;;
11313;SDS011;5712;48.858;9.206;2023-05-10T03:03:19;2.33;;;1.70;;
11313;SDS011;5712;48.858;9.206;2023-05-10T03:05:46;1.63;;;1.53;;
11313;SDS011;5712;48.858;9.206;2023-05-10T03:08:12;2.70;;;1.50;;
11313;SDS011;5712;48.858;9.206;2023-05-10T03:10:41;2.17;;;1.67;;
11313;SDS011;5712;48.858;9.206;2023-05-10T03:13:20;1.93;;;1.60;;
11313;SDS011;5712;48.858;9.206;2023-05-10T03:15:55;1.60;;;1.50;;
11313;SDS011;5712;48.858;9.206;2023-05-10T03:18:32;6.20;;;1.90;;
11313;SDS011;5712;48.858;9.206;2023-05-10T03:21:03;2.20;;;1.90;;
11313;SDS011;5712;48.858;9.206;2023-05-10T03:23:34;3.90;;;1.93;;
11313;SDS011;5712;48.858;9.206;2023-05-10T03:26:02;2.33;;;2.13;;
11313;SDS011;5712;48.858;9.206;2023-05-10T03:28:32;2.10;;;1.90;;
11313;SDS011;5712;48.858;9.206;2023-05-10T03:31:00;1.80;;;1.70;;
11313;SDS011;5712;48.858;9.206;2023-05-10T03:33:28;2.30;;;1.90;;
11313;SDS011;5712;48.858;9.206;2023-05-10T03:35:55;2.90;;;2.10;;
11313;SDS011;5712;48.858;9.206;2023-05-10T03:38:21;2.10;;;1.90;;
11313;SDS011;5712;48.858;9.206;2023-05-10T03:40:48;2.17;;;1.97;;
11313;SDS011;5712;48.858;9.206;2023-05-10T03:43:14;2.47;;;2.00;;
11313;SDS011;5712;48.858;9.206;2023-05-10T03:45:42;2.10;;;1.90;;
11313;SDS011;5712;48.858;9.206;2023-05-10T03:48:09;2.40;;;2.20;;
11313;SDS011;5712;48.858;9.206;2023-05-10T03:50:35;2.80;;;2.13;;
11313;SDS011;5712;48.858;9.206;2023-05-10T03:53:02;2.63;;;2.43;;
11313;SDS011;5712;48.858;9.206;2023-05-10T03:55:28;3.10;;;2.70;;
11313;SDS011;5712;48.858;9.206;2023-05-10T03:57:59;3.17;;;2.87;;
11313;SDS011;5712;48.858;9.206;2023-05-10T04:00:28;3.07;;;2.67;;
11313;SDS011;5712;48.858;9.206;2023-05-10T04:02:56;3.73;;;3.00;;
11313;SDS011;5712;48.858;9.206;2023-05-10T04:05:23;4.10;;;2.87;;
11313;SDS011;5712;48.858;9.206;2023-05-10T04:07:49;3.40;;;3.10;;
11313;SDS011;5712;48.858;9.206;2023-05-10T04:10:16;3.10;;;2.80;;
11313;SDS011;5712;48.858;9.206;2023-05-10T04:12:42;3.40;;;3.10;;
11313;SDS011;5712;48.858;9.206;2023-05-10T04:15:09;3.27;;;2.60;;
11313;SDS011;5712;48.858;9.206;2023-05-10T04:17:36;3.33;;;2.53;;
11313;SDS011;5712;48.858;9.206;2023-05-10T04:20:04;3.00;;;2.40;;
11313;SDS011;5712;48.858;9.206;2023-05-10T04:22:32;3.50;;;2.87;;
11313;SDS011;5712;48.858;9.206;2023-05-10T04:24:58;3.47;;;3.13;;
11313;SDS011;5712;48.858;9.206;2023-05-10T04:27:25;3.60;;;2.77;;
11313;SDS011;5712;48.858;9.206;2023-05-10T04:29:52;4.57;;;3.23;;
11313;SDS011;5712;48.858;9.206;2023-05-10T04:32:18;3.13;;;2.83;;
11313;SDS011;5712;48.858;9.206;2023-05-10T04:34:45;8.43;;;3.77;;
11313;SDS011;5712;48.858;9.206;2023-05-10T04:37:13;3.70;;;3.40;;
11313;SDS011;5712;48.858;9.206;2023-05-10T04:39:39;3.90;;;3.47;;
11313;SDS011;5712;48.858;9.206;2023-05-10T04:42:06;4.70;;;3.07;;
11313;SDS011;5712;48.858;9.206;2023-05-10T04:44:32;3.27;;;2.90;;
11313;SDS011;5712;48.858;9.206;2023-05-10T04:46:59;3.17;;;2.60;;
11313;SDS011;5712;48.858;9.206;2023-05-10T04:49:27;2.47;;;2.10;;
11313;SDS011;5712;48.858;9.206;2023-05-10T04:51:53;5.63;;;2.20;;
11313;SDS011;5712;48.858;9.206;2023-05-10T04:54:21;4.40;;;1.80;;
11313;SDS011;5712;48.858;9.206;2023-05-10T04:56:48;2.77;;;2.13;;
11313;SDS011;5712;48.858;9.206;2023-05-10T04:59:14;2.00;;;1.80;;
11313;SDS011;5712;48.858;9.206;2023-05-10T05:01:41;2.10;;;1.90;;
11313;SDS011;5712;48.858;9.206;2023-05-10T05:04:07;2.40;;;2.17;;
11313;SDS011;5712;48.858;9.206;2023-05-10T05:06:34;1.60;;;1.43;;
11313;SDS011;5712;48.858;9.206;2023-05-10T05:09:00;2.30;;;1.80;;
11313;SDS011;5712;48.858;9.206;2023-05-10T05:11:28;1.80;;;1.57;;
11313;SDS011;5712;48.858;9.206;2023-05-10T05:13:55;1.83;;;1.73;;
11313;SDS011;5712;48.858;9.206;2023-05-10T05:16:23;3.03;;;2.00;;
11313;SDS011;5712;48.858;9.206;2023-05-10T05:18:50;2.00;;;1.80;;
11313;SDS011;5712;48.858;9.206;2023-05-10T05:21:17;1.70;;;1.53;;
11313;SDS011;5712;48.858;9.206;2023-05-10T05:23:44;2.73;;;1.90;;
11313;SDS011;5712;48.858;9.206;2023-05-10T05:26:11;1.97;;;1.80;;
11313;SDS011;5712;48.858;9.206;2023-05-10T05:28:39;2.17;;;1.90;;
11313;SDS011;5712;48.858;9.206;2023-05-10T05:31:06;3.83;;;2.17;;
11313;SDS011;5712;48.858;9.206;2023-05-10T05:33:34;2.10;;;1.80;;
11313;SDS011;5712;48.858;9.206;2023-05-10T05:36:01;2.73;;;1.83;;
11313;SDS011;5712;48.858;9.206;2023-05-10T05:38:28;1.77;;;1.67;;
11313;SDS011;5712;48.858;9.206;2023-05-10T05:40:55;2.50;;;2.30;;
11313;SDS011;5712;48.858;9.206;2023-05-10T05:43:21;3.03;;;2.00;;
11313;SDS011;5712;48.858;9.206;2023-05-10T05:45:49;3.17;;;1.80;;
11313;SDS011;5712;48.858;9.206;2023-05-10T05:48:18;2.03;;;1.93;;
11313;SDS011;5712;48.858;9.206;2023-05-10T05:50:45;2.00;;;1.90;;
11313;SDS011;5712;48.858;9.206;2023-05-10T05:53:11;2.17;;;1.97;;
11313;SDS011;5712;48.858;9.206;2023-05-10T05:55:38;3.80;;;1.80;;
11313;SDS011;5712;48.858;9.206;2023-05-10T05:58:04;3.07;;;1.80;;
11313;SDS011;5712;48.858;9.206;2023-05-10T06:00:31;1.93;;;1.80;;
11313;SDS011;5712;48.858;9.206;2023-05-10T06:02:59;2.00;;;1.90;;
11313;SDS011;5712;48.858;9.206;2023-05-10T06:05:25;2.20;;;2.00;;
11313;SDS011;5712;48.858;9.206;2023-05-10T06:07:52;3.30;;;2.17;;
11313;SDS011;5712;48.858;9.206;2023-05-10T06:10:18;2.87;;;2.10;;
11313;SDS011;5712;48.858;9.206;2023-05-10T06:12:45;2.43;;;2.00;;
11313;SDS011;5712;48.858;9.206;2023-05-10T06:15:13;2.30;;;2.10;;
11313;SDS011;5712;48.858;9.206;2023-05-10T06:17:40;2.90;;;2.20;;
11313;SDS011;5712;48.858;9.206;2023-05-10T06:20:10;2.83;;;2.07;;
11313;SDS011;5712;48.858;9.206;2023-05-10T06:22:38;2.33;;;2.13;;
11313;SDS011;5712;48.858;9.206;2023-05-10T06:25:04;2.60;;;2.40;;
11313;SDS011;5712;48.858;9.206;2023-05-10T06:27:32;2.97;;;2.37;;
11313;SDS011;5712;48.858;9.206;2023-05-10T06:29:58;2.30;;;2.10;;
11313;SDS011;5712;48.858;9.206;2023-05-10T06:32:25;2.57;;;2.37;;
11313;SDS011;5712;48.858;9.206;2023-05-10T06:34:51;2.33;;;2.13;;
11313;SDS011;5712;48.858;9.206;2023-05-10T06:37:19;3.57;;;2.10;;
11313;SDS011;5712;48.858;9.206;2023-05-10T06:39:46;2.77;;;2.10;;
11313;SDS011;5712;48.858;9.206;2023-05-10T06:42:12;1.90;;;1.80;;
11313;SDS011;5712;48.858;9.206;2023-05-10T06:44:39;3.53;;;2.00;;
11313;SDS011;5712;48.858;9.206;2023-05-10T06:47:05;2.40;;;2.20;;
11313;SDS011;5712;48.858;9.206;2023-05-10T06:49:32;1.93;;;1.70;;
11313;SDS011;5712;48.858;9.206;2023-05-10T06:51:58;2.53;;;1.67;;
11313;SDS011;5712;48.858;9.206;2023-05-10T06:54:26;1.93;;;1.73;;
11313;SDS011;5712;48.858;9.206;2023-05-10T06:56:52;1.60;;;1.47;;
11313;SDS011;5712;48.858;9.206;2023-05-10T06:59:19;2.20;;;1.80;;
11313;SDS011;5712;48.858;9.206;2023-05-10T07:01:46;1.40;;;1.30;;
11313;SDS011;5712;48.858;9.206;2023-05-10T07:04:14;1.50;;;1.40;;
11313;SDS011;5712;48.858;9.206;2023-05-10T07:06:42;1.70;;;1.60;;
11313;SDS011;5712;48.858;9.206;2023-05-10T07:09:11;1.93;;;1.60;;
11313;SDS011;5712;48.858;9.206;2023-05-10T07:11:39;1.87;;;1.63;;
11313;SDS011;5712;48.858;9.206;2023-05-10T07:14:06;1.67;;;1.30;;
11313;SDS011;5712;48.858;9.206;2023-05-10T07:16:32;1.50;;;1.40;;
11313;SDS011;5712;48.858;9.206;2023-05-10T07:18:59;3.80;;;1.50;;
11313;SDS011;5712;48.858;9.206;2023-05-10T07:21:25;2.33;;;1.50;;
11313;SDS011;5712;48.858;9.206;2023-05-10T07:23:53;2.70;;;1.30;;
11313;SDS011;5712;48.858;9.206;2023-05-10T07:26:20;1.40;;;1.30;;
11313;SDS011;5712;48.858;9.206;2023-05-10T07:28:48;1.67;;;1.40;;
11313;SDS011;5712;48.858;9.206;2023-05-10T07:31:14;1.60;;;1.50;;
11313;SDS011;5712;48.858;9.206;2023-05-10T07:33:41;1.63;;;1.30;;
11313;SDS011;5712;48.858;9.206;2023-05-10T07:36:07;2.30;;;1.70;;
11313;SDS011;5712;48.858;9.206;2023-05-10T07:38:34;1.30;;;1.20;;
11313;SDS011;5712;48.858;9.206;2023-05-10T07:41:00;1.70;;;1.40;;
11313;SDS011;5712;48.858;9.206;2023-05-10T07:43:27;1.67;;;1.00;;
11313;SDS011;5712;48.858;9.206;2023-05-10T07:45:55;2.90;;;1.00;;
11313;SDS011;5712;48.858;9.206;2023-05-10T07:48:22;0.80;;;0.80;;
11313;SDS011;5712;48.858;9.206;2023-05-10T07:50:49;1.80;;;0.90;;
11313;SDS011;5712;48.858;9.206;2023-05-10T07:53:15;1.30;;;1.07;;
11313;SDS011;5712;48.858;9.206;2023-05-10T07:55:43;0.90;;;0.90;;
11313;SDS011;5712;48.858;9.206;2023-05-10T07:58:10;1.37;;;1.20;;
11313;SDS011;5712;48.858;9.206;2023-05-10T08:00:36;1.17;;;0.93;;
11313;SDS011;5712;48.858;9.206;2023-05-10T08:03:05;0.97;;;0.90;;
11313;SDS011;5712;48.858;9.206;2023-05-10T08:05:33;2.60;;;0.90;;
11313;SDS011;5712;48.858;9.206;2023-05-10T08:08:00;1.63;;;0.97;;
11313;SDS011;5712;48.858;9.206;2023-05-10T08:10:26;0.90;;;0.90;;
11313;SDS011;5712;48.858;9.206;2023-05-10T08:12:53;0.80;;;0.80;;
11313;SDS011;5712;48.858;9.206;2023-05-10T08:15:19;2.40;;;0.80;;
11313;SDS011;5712;48.858;9.206;2023-05-10T08:17:46;1.10;;;0.90;;
11313;SDS011;5712;48.858;9.206;2023-05-10T08:20:14;0.80;;;0.80;;
11313;SDS011;5712;48.858;9.206;2023-05-10T08:22:42;1.13;;;0.90;;
11313;SDS011;5712;48.858;9.206;2023-05-10T08:25:09;1.27;;;0.90;;
11313;SDS011;5712;48.858;9.206;2023-05-10T08:27:35;1.97;;;1.00;;
11313;SDS011;5712;48.858;9.206;2023-05-10T08:30:02;0.93;;;0.70;;
11313;SDS011;5712;48.858;9.206;2023-05-10T08:32:29;0.70;;;0.70;;
11313;SDS011;5712;48.858;9.206;2023-05-10T08:34:55;0.60;;;0.60;;
11313;SDS011;5712;48.858;9.206;2023-05-10T08:37:24;1.87;;;0.80;;
11313;SDS011;5712;48.858;9.206;2023-05-10T08:39:50;1.07;;;0.60;;
11313;SDS011;5712;48.858;9.206;2023-05-10T08:42:19;0.90;;;0.70;;
11313;SDS011;5712;48.858;9.206;2023-05-10T08:44:51;0.70;;;0.70;;
11313;SDS011;5712;48.858;9.206;2023-05-10T08:47:20;1.30;;;0.60;;
11313;SDS011;5712;48.858;9.206;2023-05-10T08:49:47;0.70;;;0.70;;
11313;SDS011;5712;48.858;9.206;2023-05-10T08:52:16;1.07;;;0.60;;
11313;SDS011;5712;48.858;9.206;2023-05-10T08:54:44;0.60;;;0.60;;
11313;SDS011;5712;48.858;9.206;2023-05-10T08:57:11;0.70;;;0.60;;
11313;SDS011;5712;48.858;9.206;2023-05-10T08:59:38;0.70;;;0.53;;
11313;SDS011;5712;48.858;9.206;2023-05-10T09:02:04;0.60;;;0.60;;
11313;SDS011;5712;48.858;9.206;2023-05-10T09:04:32;0.83;;;0.60;;
11313;SDS011;5712;48.858;9.206;2023-05-10T09:06:58;0.63;;;0.63;;
11313;SDS011;5712;48.858;9.206;2023-05-10T09:09:26;0.80;;;0.60;;
11313;SDS011;5712;48.858;9.206;2023-05-10T09:11:55;0.97;;;0.60;;
11313;SDS011;5712;48.858;9.206;2023-05-10T09:14:21;4.50;;;0.60;;
11313;SDS011;5712;48.858;9.206;2023-05-10T09:16:49;0.80;;;0.60;;
11313;SDS011;5712;48.858;9.206;2023-05-10T09:19:16;0.80;;;0.47;;
11313;SDS011;5712;48.858;9.206;2023-05-10T09:21:43;0.50;;;0.50;;
11313;SDS011;5712;48.858;9.206;2023-05-10T09:24:09;0.77;;;0.50;;
11313;SDS011;5712;48.858;9.206;2023-05-10T09:26:39;0.50;;;0.50;;
11313;SDS011;5712;48.858;9.206;2023-05-10T09:29:13;1.27;;;0.50;;
11313;SDS011;5712;48.858;9.206;2023-05-10T09:31:44;1.80;;;0.67;;
11313;SDS011;5712;48.858;9.206;2023-05-10T09:34:15;1.20;;;0.60;;
11313;SDS011;5712;48.858;9.206;2023-05-10T09:36:52;0.97;;;0.73;;
11313;SDS011;5712;48.858;9.206;2023-05-10T09:39:20;0.50;;;0.50;;
11313;SDS011;5712;48.858;9.206;2023-05-10T09:41:46;1.03;;;0.53;;
11313;SDS011;5712;48.858;9.206;2023-05-10T09:44:17;0.70;;;0.60;;
11313;SDS011;5712;48.858;9.206;2023-05-10T09:46:48;1.70;;;0.60;;
11313;SDS011;5712;48.858;9.206;2023-05-10T09:49:16;1.00;;;0.60;;
11313;SDS011;5712;48.858;9.206;2023-05-10T09:51:42;0.60;;;0.60;;
11313;SDS011;5712;48.858;9.206;2023-05-10T09:54:09;2.40;;;0.90;;
11313;SDS011;5712;48.858;9.206;2023-05-10T09:56:37;0.50;;;0.50;;
11313;SDS011;5712;48.858;9.206;2023-05-10T09:59:05;0.50;;;0.50;;
11313;SDS011;5712;48.858;9.206;2023-05-10T10:01:34;1.03;;;0.60;;
11313;SDS011;5712;48.858;9.206;2023-05-10T10:04:02;0.70;;;0.60;;
11313;SDS011;5712;48.858;9.206;2023-05-10T10:06:34;0.93;;;0.57;;
11313;SDS011;5712;48.858;9.206;2023-05-10T10:09:01;2.30;;;0.57;;
11313;SDS011;5712;48.858;9.206;2023-05-10T10:11:28;0.70;;;0.67;;
11313;SDS011;5712;48.858;9.206;2023-05-10T10:13:55;0.60;;;0.60;;
11313;SDS011;5712;48.858;9.206;2023-05-10T10:16:21;0.80;;;0.60;;
11313;SDS011;5712;48.858;9.206;2023-05-10T10:18:50;1.47;;;0.80;;
11313;SDS011;5712;48.858;9.206;2023-05-10T10:21:16;1.23;;;0.70;;
11313;SDS011;5712;48.858;9.206;2023-05-10T10:23:43;0.60;;;0.60;;
11313;SDS011;5712;48.858;9.206;2023-05-10T10:26:10;0.70;;;0.57;;
11313;SDS011;5712;48.858;9.206;2023-05-10T10:28:39;1.40;;;0.80;;
11313;SDS011;5712;48.858;9.206;2023-05-10T10:31:15;1.13;;;0.70;;
11313;SDS011;5712;48.858;9.206;2023-05-10T10:33:55;0.80;;;0.73;;
11313;SDS011;5712;48.858;9.206;2023-05-10T10:36:25;0.70;;;0.70;;
11313;SDS011;5712;48.858;9.206;2023-05-10T10:38:56;1.80;;;0.80;;
11313;SDS011;5712;48.858;9.206;2023-05-10T10:41:29;0.90;;;0.53;;
11313;SDS011;5712;48.858;9.206;2023-05-10T10:46:59;0.70;;;0.60;;
11313;SDS011;5712;48.858;9.206;2023-05-10T10:49:37;0.73;;;0.70;;
11313;SDS011;5712;48.858;9.206;2023-05-10T10:52:14;0.50;;;0.50;;
11313;SDS011;5712;48.858;9.206;2023-05-10T10:54:45;0.50;;;0.40;;
11313;SDS011;5712;48.858;9.206;2023-05-10T10:57:17;0.63;;;0.63;;
11313;SDS011;5712;48.858;9.206;2023-05-10T10:59:44;0.60;;;0.60;;
11313;SDS011;5712;48.858;9.206;2023-05-10T11:02:17;1.13;;;0.50;;
11313;SDS011;5712;48.858;9.206;2023-05-10T11:05:00;2.30;;;1.50;;
11313;SDS011;5712;48.858;9.206;2023-05-10T11:07:51;0.60;;;0.50;;
11313;SDS011;5712;48.858;9.206;2023-05-10T11:10:19;2.83;;;0.70;;
11313;SDS011;5712;48.858;9.206;2023-05-10T11:12:50;1.13;;;0.70;;
11313;SDS011;5712;48.858;9.206;2023-05-10T11:15:18;1.17;;;0.60;;
11313;SDS011;5712;48.858;9.206;2023-05-10T11:17:45;1.50;;;0.70;;
11313;SDS011;5712;48.858;9.206;2023-05-10T11:20:18;1.13;;;0.60;;
11313;SDS011;5712;48.858;9.206;2023-05-10T11:22:51;1.93;;;0.97;;
11313;SDS011;5712;48.858;9.206;2023-05-10T11:25:18;1.70;;;0.70;;
11313;SDS011;5712;48.858;9.206;2023-05-10T11:27:45;1.50;;;0.63;;
11313;SDS011;5712;48.858;9.206;2023-05-10T11:30:14;0.67;;;0.60;;
11313;SDS011;5712;48.858;9.206;2023-05-10T11:32:40;1.93;;;0.70;;
11313;SDS011;5712;48.858;9.206;2023-05-10T11:35:07;1.20;;;0.70;;
11313;SDS011;5712;48.858;9.206;2023-05-10T11:37:36;1.43;;;0.60;;
11313;SDS011;5712;48.858;9.206;2023-05-10T11:40:06;0.50;;;0.50;;
11313;SDS011;5712;48.858;9.206;2023-05-10T11:42:34;1.77;;;0.80;;
11313;SDS011;5712;48.858;9.206;2023-05-10T11:45:03;1.53;;;0.97;;
11313;SDS011;5712;48.858;9.206;2023-05-10T11:47:30;2.03;;;0.90;;
11313;SDS011;5712;48.858;9.206;2023-05-10T11:49:56;1.97;;;0.70;;
11313;SDS011;5712;48.858;9.206;2023-05-10T11:52:23;1.73;;;0.80;;
11313;SDS011;5712;48.858;9.206;2023-05-10T11:54:54;1.23;;;0.90;;
11313;SDS011;5712;48.858;9.206;2023-05-10T11:57:25;2.47;;;1.00;;
11313;SDS011;5712;48.858;9.206;2023-05-10T11:59:53;1.43;;;1.00;;
11313;SDS011;5712;48.858;9.206;2023-05-10T12:02:19;2.47;;;1.07;;
11313;SDS011;5712;48.858;9.206;2023-05-10T12:04:46;2.30;;;1.07;;
11313;SDS011;5712;48.858;9.206;2023-05-10T12:07:13;2.00;;;1.17;;
11313;SDS011;5712;48.858;9.206;2023-05-10T12:09:42;3.47;;;1.20;;
11313;SDS011;5712;48.858;9.206;2023-05-10T12:12:10;1.67;;;1.17;;
11313;SDS011;5712;48.858;9.206;2023-05-10T12:14:36;4.03;;;1.10;;
11313;SDS011;5712;48.858;9.206;2023-05-10T12:17:03;2.93;;;1.10;;
11313;SDS011;5712;48.858;9.206;2023-05-10T12:19:36;1.27;;;0.90;;
11313;SDS011;5712;48.858;9.206;2023-05-10T12:22:04;1.37;;;1.00;;
11313;SDS011;5712;48.858;9.206;2023-05-10T12:24:30;1.57;;;0.90;;
11313;SDS011;5712;48.858;9.206;2023-05-10T12:27:03;1.63;;;0.93;;
11313;SDS011;5712;48.858;9.206;2023-05-10T12:29:34;1.00;;;0.90;;
11313;SDS011;5712;48.858;9.206;2023-05-10T12:32:00;1.10;;;0.80;;
11313;SDS011;5712;48.858;9.206;2023-05-10T12:34:30;2.33;;;0.73;;
11313;SDS011;5712;48.858;9.206;2023-05-10T12:36:58;0.73;;;0.60;;
11313;SDS011;5712;48.858;9.206;2023-05-10T12:39:25;2.97;;;0.90;;
11313;SDS011;5712;48.858;9.206;2023-05-10T12:41:51;0.97;;;0.70;;
11313;SDS011;5712;48.858;9.206;2023-05-10T12:44:18;1.30;;;0.80;;
11313;SDS011;5712;48.858;9.206;2023-05-10T12:46:46;1.37;;;0.77;;
11313;SDS011;5712;48.858;9.206;2023-05-10T12:49:12;1.07;;;0.70;;
11313;SDS011;5712;48.858;9.206;2023-05-10T12:51:39;1.10;;;0.80;;
11313;SDS011;5712;48.858;9.206;2023-05-10T12:54:05;4.07;;;1.10;;
11313;SDS011;5712;48.858;9.206;2023-05-10T12:56:32;2.97;;;0.70;;
11313;SDS011;5712;48.858;9.206;2023-05-10T12:58:58;1.13;;;0.83;;
11313;SDS011;5712;48.858;9.206;2023-05-10T13:01:25;1.67;;;0.70;;
11313;SDS011;5712;48.858;9.206;2023-05-10T13:03:53;3.80;;;0.87;;
11313;SDS011;5712;48.858;9.206;2023-05-10T13:06:19;1.13;;;0.60;;
11313;SDS011;5712;48.858;9.206;2023-05-10T13:08:46;3.73;;;0.80;;
11313;SDS011;5712;48.858;9.206;2023-05-10T13:11:12;1.17;;;0.80;;
11313;SDS011;5712;48.858;9.206;2023-05-10T13:13:41;1.63;;;0.90;;
11313;SDS011;5712;48.858;9.206;2023-05-10T13:16:07;2.73;;;0.73;;
11313;SDS011;5712;48.858;9.206;2023-05-10T13:18:34;1.33;;;0.90;;
11313;SDS011;5712;48.858;9.206;2023-05-10T13:21:02;1.00;;;0.80;;
11313;SDS011;5712;48.858;9.206;2023-05-10T13:23:30;1.23;;;0.70;;
11313;SDS011;5712;48.858;9.206;2023-05-10T13:25:56;1.47;;;0.70;;
11313;SDS011;5712;48.858;9.206;2023-05-10T13:28:23;3.43;;;0.80;;
11313;SDS011;5712;48.858;9.206;2023-05-10T13:30:53;1.13;;;0.70;;
11313;SDS011;5712;48.858;9.206;2023-05-10T13:33:20;1.00;;;0.83;;
11313;SDS011;5712;48.858;9.206;2023-05-10T13:35:46;0.80;;;0.80;;
11313;SDS011;5712;48.858;9.206;2023-05-10T13:38:14;0.70;;;0.60;;
11313;SDS011;5712;48.858;9.206;2023-05-10T13:40:40;2.27;;;0.97;;
11313;SDS011;5712;48.858;9.206;2023-05-10T13:43:07;1.83;;;0.70;;
11313;SDS011;5712;48.858;9.206;2023-05-10T13:45:33;1.60;;;0.73;;
11313;SDS011;5712;48.858;9.206;2023-05-10T13:48:00;0.90;;;0.80;;
11313;SDS011;5712;48.858;9.206;2023-05-10T13:50:27;1.23;;;0.77;;
11313;SDS011;5712;48.858;9.206;2023-05-10T13:52:53;1.83;;;0.90;;
11313;SDS011;5712;48.858;9.206;2023-05-10T13:55:21;1.10;;;1.00;;
11313;SDS011;5712;48.858;9.206;2023-05-10T13:57:48;2.27;;;0.97;;
11313;SDS011;5712;48.858;9.206;2023-05-10T14:00:15;2.30;;;0.70;;
11313;SDS011;5712;48.858;9.206;2023-05-10T14:02:42;1.03;;;0.90;;
11313;SDS011;5712;48.858;9.206;2023-05-10T14:05:08;3.03;;;0.90;;
11313;SDS011;5712;48.858;9.206;2023-05-10T14:07:35;1.90;;;0.97;;
11313;SDS011;5712;48.858;9.206;2023-05-10T14:10:01;2.70;;;0.80;;
11313;SDS011;5712;48.858;9.206;2023-05-10T14:12:30;1.67;;;1.00;;
11313;SDS011;5712;48.858;9.206;2023-05-10T14:14:59;2.53;;;0.80;;
11313;SDS011;5712;48.858;9.206;2023-05-10T14:17:26;1.10;;;0.80;;
11313;SDS011;5712;48.858;9.206;2023-05-10T14:19:52;0.77;;;0.77;;
11313;SDS011;5712;48.858;9.206;2023-05-10T14:22:19;2.03;;;0.80;;
11313;SDS011;5712;48.858;9.206;2023-05-10T14:24:45;2.63;;;0.90;;
11313;SDS011;5712;48.858;9.206;2023-05-10T14:27:12;1.50;;;0.80;;
11313;SDS011;5712;48.858;9.206;2023-05-10T14:29:40;1.73;;;0.63;;
11313;SDS011;5712;48.858;9.206;2023-05-10T14:32:07;0.70;;;0.70;;
11313;SDS011;5712;48.858;9.206;2023-05-10T14:34:33;1.27;;;0.70;;
11313;SDS011;5712;48.858;9.206;2023-05-10T14:37:00;0.83;;;0.83;;
11313;SDS011;5712;48.858;9.206;2023-05-10T14:39:26;1.07;;;0.83;;
11313;SDS011;5712;48.858;9.206;2023-05-10T14:41:54;1.43;;;0.80;;
11313;SDS011;5712;48.858;9.206;2023-05-10T14:44:21;3.03;;;0.80;;
11313;SDS011;5712;48.858;9.206;2023-05-10T14:46:49;1.83;;;1.10;;
11313;SDS011;5712;48.858;9.206;2023-05-10T14:49:15;1.83;;;0.90;;
11313;SDS011;5712;48.858;9.206;2023-05-10T14:51:41;1.83;;;1.13;;
11313;SDS011;5712;48.858;9.206;2023-05-10T14:54:09;1.00;;;0.70;;
11313;SDS011;5712;48.858;9.206;2023-05-10T14:56:36;1.23;;;0.83;;
11313;SDS011;5712;48.858;9.206;2023-05-10T14:59:03;0.70;;;0.70;;
11313;SDS011;5712;48.858;9.206;2023-05-10T15:01:29;1.20;;;0.70;;
11313;SDS011;5712;48.858;9.206;2023-05-10T15:04:08;0.70;;;0.50;;
11313;SDS011;5712;48.858;9.206;2023-05-10T15:06:34;1.47;;;0.80;;
11313;SDS011;5712;48.858;9.206;2023-05-10T15:09:02;0.83;;;0.80;;
11313;SDS011;5712;48.858;9.206;2023-05-10T15:11:28;0.77;;;0.77;;